sensor_id;sensor_type;location;lat;lon;timestamp;temperature;humidity
74081;SHT31;62438;52.228;6.864;2023-01-01T00:01:14;15.38;65.04
74081;SHT31;62438;52.228;6.864;2023-01-01T00:03:15;15.44;64.73
74081;SHT31;62438;52.228;6.864;2023-01-01T00:05:15;15.44;64.04
74081;SHT31;62438;52.228;6.864;2023-01-01T00:07:16;15.41;64.66
74081;SHT31;62438;52.228;6.864;2023-01-01T00:09:16;15.45;63.93
74081;SHT31;62438;52.228;6.864;2023-01-01T00:11:35;15.48;64.07
74081;SHT31;62438;52.228;6.864;2023-01-01T00:13:39;15.39;64.90
74081;SHT31;62438;52.228;6.864;2023-01-01T00:15:40;15.47;64.29
74081;SHT31;62438;52.228;6.864;2023-01-01T00:17:40;15.49;63.98
74081;SHT31;62438;52.228;6.864;2023-01-01T00:19:41;15.48;64.41
74081;SHT31;62438;52.228;6.864;2023-01-01T00:21:41;15.48;65.03
74081;SHT31;62438;52.228;6.864;2023-01-01T00:23:42;15.28;66.36
74081;SHT31;62438;52.228;6.864;2023-01-01T00:25:42;15.32;65.72
74081;SHT31;62438;52.228;6.864;2023-01-01T00:27:43;15.28;66.24
74081;SHT31;62438;52.228;6.864;2023-01-01T00:29:44;15.31;66.09
74081;SHT31;62438;52.228;6.864;2023-01-01T00:31:44;15.17;67.18
74081;SHT31;62438;52.228;6.864;2023-01-01T00:33:51;15.17;66.70
74081;SHT31;62438;52.228;6.864;2023-01-01T00:35:52;15.12;68.16
74081;SHT31;62438;52.228;6.864;2023-01-01T00:37:53;15.07;68.21
74081;SHT31;62438;52.228;6.864;2023-01-01T00:39:54;14.90;69.88
74081;SHT31;62438;52.228;6.864;2023-01-01T00:41:54;14.81;69.59
74081;SHT31;62438;52.228;6.864;2023-01-01T00:43:55;14.81;69.34
74081;SHT31;62438;52.228;6.864;2023-01-01T00:45:55;14.76;69.92
74081;SHT31;62438;52.228;6.864;2023-01-01T00:47:55;14.81;68.98
74081;SHT31;62438;52.228;6.864;2023-01-01T00:49:56;14.90;68.75
74081;SHT31;62438;52.228;6.864;2023-01-01T00:51:56;14.83;69.21
74081;SHT31;62438;52.228;6.864;2023-01-01T00:53:59;14.98;67.93
74081;SHT31;62438;52.228;6.864;2023-01-01T00:56:01;14.97;68.33
74081;SHT31;62438;52.228;6.864;2023-01-01T00:58:02;14.94;68.40
74081;SHT31;62438;52.228;6.864;2023-01-01T01:00:03;14.94;68.44
74081;SHT31;62438;52.228;6.864;2023-01-01T01:02:04;14.89;69.23
74081;SHT31;62438;52.228;6.864;2023-01-01T01:04:05;14.77;70.82
74081;SHT31;62438;52.228;6.864;2023-01-01T01:06:07;14.76;70.40
74081;SHT31;62438;52.228;6.864;2023-01-01T01:08:11;14.69;71.35
74081;SHT31;62438;52.228;6.864;2023-01-01T01:10:12;14.46;73.64
74081;SHT31;62438;52.228;6.864;2023-01-01T01:12:13;14.25;75.63
74081;SHT31;62438;52.228;6.864;2023-01-01T01:14:13;14.15;75.71
74081;SHT31;62438;52.228;6.864;2023-01-01T01:16:16;14.02;76.69
74081;SHT31;62438;52.228;6.864;2023-01-01T01:18:17;13.91;77.43
74081;SHT31;62438;52.228;6.864;2023-01-01T01:20:18;13.84;77.51
74081;SHT31;62438;52.228;6.864;2023-01-01T01:22:18;13.80;77.45
74081;SHT31;62438;52.228;6.864;2023-01-01T01:24:18;13.87;76.74
74081;SHT31;62438;52.228;6.864;2023-01-01T01:28:19;13.90;76.60
74081;SHT31;62438;52.228;6.864;2023-01-01T01:30:20;13.84;77.15
74081;SHT31;62438;52.228;6.864;2023-01-01T01:32:20;13.87;76.50
74081;SHT31;62438;52.228;6.864;2023-01-01T01:34:20;13.92;75.89
74081;SHT31;62438;52.228;6.864;2023-01-01T01:36:21;13.85;76.33
74081;SHT31;62438;52.228;6.864;2023-01-01T01:38:22;13.90;75.84
74081;SHT31;62438;52.228;6.864;2023-01-01T01:40:23;14.00;74.09
74081;SHT31;62438;52.228;6.864;2023-01-01T01:42:24;14.08;74.05
74081;SHT31;62438;52.228;6.864;2023-01-01T01:46:46;14.12;73.41
74081;SHT31;62438;52.228;6.864;2023-01-01T01:48:51;14.11;73.55
74081;SHT31;62438;52.228;6.864;2023-01-01T01:50:52;14.07;73.81
74081;SHT31;62438;52.228;6.864;2023-01-01T01:54:56;14.07;73.40
74081;SHT31;62438;52.228;6.864;2023-01-01T01:57:02;14.08;73.23
74081;SHT31;62438;52.228;6.864;2023-01-01T01:59:05;14.07;73.64
74081;SHT31;62438;52.228;6.864;2023-01-01T02:01:06;14.14;72.25
74081;SHT31;62438;52.228;6.864;2023-01-01T02:03:10;14.21;71.39
74081;SHT31;62438;52.228;6.864;2023-01-01T02:05:12;14.22;70.99
74081;SHT31;62438;52.228;6.864;2023-01-01T02:07:14;14.26;71.35
74081;SHT31;62438;52.228;6.864;2023-01-01T02:09:16;14.22;71.67
74081;SHT31;62438;52.228;6.864;2023-01-01T02:11:16;14.24;71.05
74081;SHT31;62438;52.228;6.864;2023-01-01T02:13:17;14.14;72.12
74081;SHT31;62438;52.228;6.864;2023-01-01T02:15:18;14.08;72.74
74081;SHT31;62438;52.228;6.864;2023-01-01T02:17:26;14.19;70.84
74081;SHT31;62438;52.228;6.864;2023-01-01T02:26:39;14.45;68.85
74081;SHT31;62438;52.228;6.864;2023-01-01T02:31:31;14.25;70.70
74081;SHT31;62438;52.228;6.864;2023-01-01T02:33:33;14.24;70.50
74081;SHT31;62438;52.228;6.864;2023-01-01T02:35:37;14.31;69.78
74081;SHT31;62438;52.228;6.864;2023-01-01T02:37:41;14.24;69.53
74081;SHT31;62438;52.228;6.864;2023-01-01T02:39:49;14.26;69.71
74081;SHT31;62438;52.228;6.864;2023-01-01T02:41:53;14.35;68.95
74081;SHT31;62438;52.228;6.864;2023-01-01T02:43:55;14.42;68.47
74081;SHT31;62438;52.228;6.864;2023-01-01T02:45:55;14.39;68.21
74081;SHT31;62438;52.228;6.864;2023-01-01T02:47:56;14.33;69.45
74081;SHT31;62438;52.228;6.864;2023-01-01T02:50:10;14.28;69.51
74081;SHT31;62438;52.228;6.864;2023-01-01T02:54:52;14.26;69.18
74081;SHT31;62438;52.228;6.864;2023-01-01T03:01:48;14.19;69.27
74081;SHT31;62438;52.228;6.864;2023-01-01T03:04:00;14.19;69.21
74081;SHT31;62438;52.228;6.864;2023-01-01T03:06:10;14.38;67.44
74081;SHT31;62438;52.228;6.864;2023-01-01T03:08:26;14.32;67.99
74081;SHT31;62438;52.228;6.864;2023-01-01T03:10:57;14.31;67.45
74081;SHT31;62438;52.228;6.864;2023-01-01T03:15:53;14.33;67.27
74081;SHT31;62438;52.228;6.864;2023-01-01T03:18:09;14.33;66.91
74081;SHT31;62438;52.228;6.864;2023-01-01T03:20:21;14.39;66.47
74081;SHT31;62438;52.228;6.864;2023-01-01T03:22:27;14.29;67.08
74081;SHT31;62438;52.228;6.864;2023-01-01T03:24:33;14.40;65.78
74081;SHT31;62438;52.228;6.864;2023-01-01T03:26:35;14.43;66.12
74081;SHT31;62438;52.228;6.864;2023-01-01T03:28:45;14.43;65.71
74081;SHT31;62438;52.228;6.864;2023-01-01T03:30:46;14.48;65.20
74081;SHT31;62438;52.228;6.864;2023-01-01T03:35:01;14.42;65.79
74081;SHT31;62438;52.228;6.864;2023-01-01T03:37:06;14.42;66.13
74081;SHT31;62438;52.228;6.864;2023-01-01T03:39:12;14.39;66.19
74081;SHT31;62438;52.228;6.864;2023-01-01T03:43:38;14.38;66.11
74081;SHT31;62438;52.228;6.864;2023-01-01T03:45:43;14.40;66.24
74081;SHT31;62438;52.228;6.864;2023-01-01T03:47:48;14.29;66.97
74081;SHT31;62438;52.228;6.864;2023-01-01T03:49:49;14.35;66.33
74081;SHT31;62438;52.228;6.864;2023-01-01T03:54:00;14.24;67.41
74081;SHT31;62438;52.228;6.864;2023-01-01T03:56:28;14.33;66.16
74081;SHT31;62438;52.228;6.864;2023-01-01T03:58:41;14.33;66.24
74081;SHT31;62438;52.228;6.864;2023-01-01T04:00:48;14.33;66.43
74081;SHT31;62438;52.228;6.864;2023-01-01T04:03:04;14.31;66.01
74081;SHT31;62438;52.228;6.864;2023-01-01T04:05:05;14.35;66.05
74081;SHT31;62438;52.228;6.864;2023-01-01T04:07:06;14.25;66.18
74081;SHT31;62438;52.228;6.864;2023-01-01T04:09:16;14.26;66.14
74081;SHT31;62438;52.228;6.864;2023-01-01T04:11:20;14.29;66.19
74081;SHT31;62438;52.228;6.864;2023-01-01T04:13:47;14.15;66.67
74081;SHT31;62438;52.228;6.864;2023-01-01T04:15:47;14.18;66.23
74081;SHT31;62438;52.228;6.864;2023-01-01T04:17:48;14.19;66.09
74081;SHT31;62438;52.228;6.864;2023-01-01T04:19:48;14.18;66.53
74081;SHT31;62438;52.228;6.864;2023-01-01T04:21:49;14.22;66.36
74081;SHT31;62438;52.228;6.864;2023-01-01T04:23:50;14.28;65.43
74081;SHT31;62438;52.228;6.864;2023-01-01T04:25:50;14.29;65.57
74081;SHT31;62438;52.228;6.864;2023-01-01T04:27:51;14.35;65.03
74081;SHT31;62438;52.228;6.864;2023-01-01T04:29:51;14.28;65.82
74081;SHT31;62438;52.228;6.864;2023-01-01T04:31:52;14.28;65.74
74081;SHT31;62438;52.228;6.864;2023-01-01T04:33:53;14.29;65.39
74081;SHT31;62438;52.228;6.864;2023-01-01T04:35:53;14.28;65.75
74081;SHT31;62438;52.228;6.864;2023-01-01T04:37:53;14.25;66.35
74081;SHT31;62438;52.228;6.864;2023-01-01T04:39:54;14.35;65.76
74081;SHT31;62438;52.228;6.864;2023-01-01T04:41:54;14.31;65.80
74081;SHT31;62438;52.228;6.864;2023-01-01T04:43:55;14.35;65.18
74081;SHT31;62438;52.228;6.864;2023-01-01T04:45:56;14.32;65.76
74081;SHT31;62438;52.228;6.864;2023-01-01T04:48:03;14.24;65.97
74081;SHT31;62438;52.228;6.864;2023-01-01T04:50:04;14.22;66.54
74081;SHT31;62438;52.228;6.864;2023-01-01T04:52:05;14.29;65.53
74081;SHT31;62438;52.228;6.864;2023-01-01T04:54:05;14.19;67.00
74081;SHT31;62438;52.228;6.864;2023-01-01T04:56:14;14.26;66.25
74081;SHT31;62438;52.228;6.864;2023-01-01T04:58:15;14.38;65.68
74081;SHT31;62438;52.228;6.864;2023-01-01T05:00:15;14.26;66.54
74081;SHT31;62438;52.228;6.864;2023-01-01T05:02:16;14.24;66.48
74081;SHT31;62438;52.228;6.864;2023-01-01T05:04:17;14.26;66.45
74081;SHT31;62438;52.228;6.864;2023-01-01T05:06:17;14.24;66.78
74081;SHT31;62438;52.228;6.864;2023-01-01T05:08:18;14.22;66.91
74081;SHT31;62438;52.228;6.864;2023-01-01T05:10:18;14.22;66.80
74081;SHT31;62438;52.228;6.864;2023-01-01T05:12:19;14.18;67.21
74081;SHT31;62438;52.228;6.864;2023-01-01T05:14:19;14.21;66.79
74081;SHT31;62438;52.228;6.864;2023-01-01T05:16:23;14.21;66.89
74081;SHT31;62438;52.228;6.864;2023-01-01T05:18:23;14.17;68.01
74081;SHT31;62438;52.228;6.864;2023-01-01T05:20:24;14.19;67.42
74081;SHT31;62438;52.228;6.864;2023-01-01T05:22:24;14.17;67.56
74081;SHT31;62438;52.228;6.864;2023-01-01T05:24:25;14.17;67.60
74081;SHT31;62438;52.228;6.864;2023-01-01T05:26:28;14.17;67.23
74081;SHT31;62438;52.228;6.864;2023-01-01T05:28:30;14.14;67.80
74081;SHT31;62438;52.228;6.864;2023-01-01T05:30:30;14.19;67.57
74081;SHT31;62438;52.228;6.864;2023-01-01T05:32:30;14.22;67.37
74081;SHT31;62438;52.228;6.864;2023-01-01T05:34:31;14.15;67.67
74081;SHT31;62438;52.228;6.864;2023-01-01T05:36:34;14.21;67.62
74081;SHT31;62438;52.228;6.864;2023-01-01T05:38:37;14.12;67.93
74081;SHT31;62438;52.228;6.864;2023-01-01T05:40:38;14.10;68.22
74081;SHT31;62438;52.228;6.864;2023-01-01T05:42:39;14.05;68.58
74081;SHT31;62438;52.228;6.864;2023-01-01T05:44:40;14.04;69.29
74081;SHT31;62438;52.228;6.864;2023-01-01T05:46:40;13.88;71.02
74081;SHT31;62438;52.228;6.864;2023-01-01T05:48:42;13.77;71.96
74081;SHT31;62438;52.228;6.864;2023-01-01T05:50:42;13.66;72.60
74081;SHT31;62438;52.228;6.864;2023-01-01T05:52:43;13.74;71.79
74081;SHT31;62438;52.228;6.864;2023-01-01T05:54:43;13.70;71.25
74081;SHT31;62438;52.228;6.864;2023-01-01T05:56:44;13.73;71.13
74081;SHT31;62438;52.228;6.864;2023-01-01T05:58:45;13.78;71.16
74081;SHT31;62438;52.228;6.864;2023-01-01T06:00:46;13.88;70.55
74081;SHT31;62438;52.228;6.864;2023-01-01T06:02:46;13.82;71.29
74081;SHT31;62438;52.228;6.864;2023-01-01T06:04:48;13.73;71.80
74081;SHT31;62438;52.228;6.864;2023-01-01T06:06:49;13.85;71.15
74081;SHT31;62438;52.228;6.864;2023-01-01T06:09:09;13.80;71.74
74081;SHT31;62438;52.228;6.864;2023-01-01T06:11:10;13.78;71.53
74081;SHT31;62438;52.228;6.864;2023-01-01T06:13:11;13.77;71.81
74081;SHT31;62438;52.228;6.864;2023-01-01T06:15:11;13.77;71.89
74081;SHT31;62438;52.228;6.864;2023-01-01T06:17:12;13.69;72.08
74081;SHT31;62438;52.228;6.864;2023-01-01T06:19:12;13.67;72.23
74081;SHT31;62438;52.228;6.864;2023-01-01T06:21:18;13.64;72.29
74081;SHT31;62438;52.228;6.864;2023-01-01T06:23:18;13.73;71.78
74081;SHT31;62438;52.228;6.864;2023-01-01T06:25:19;13.63;72.68
74081;SHT31;62438;52.228;6.864;2023-01-01T06:27:19;13.63;72.48
74081;SHT31;62438;52.228;6.864;2023-01-01T06:29:20;13.53;72.70
74081;SHT31;62438;52.228;6.864;2023-01-01T06:31:22;13.56;72.37
74081;SHT31;62438;52.228;6.864;2023-01-01T06:33:23;13.57;72.42
74081;SHT31;62438;52.228;6.864;2023-01-01T06:35:23;13.64;71.90
74081;SHT31;62438;52.228;6.864;2023-01-01T06:37:24;13.66;71.84
74081;SHT31;62438;52.228;6.864;2023-01-01T06:39:24;13.59;72.43
74081;SHT31;62438;52.228;6.864;2023-01-01T06:41:26;13.59;72.53
74081;SHT31;62438;52.228;6.864;2023-01-01T06:43:29;13.73;71.41
74081;SHT31;62438;52.228;6.864;2023-01-01T06:45:30;13.73;71.21
74081;SHT31;62438;52.228;6.864;2023-01-01T06:47:34;13.73;71.93
74081;SHT31;62438;52.228;6.864;2023-01-01T06:49:34;13.77;71.25
74081;SHT31;62438;52.228;6.864;2023-01-01T06:51:37;13.74;71.50
74081;SHT31;62438;52.228;6.864;2023-01-01T06:53:39;13.69;71.97
74081;SHT31;62438;52.228;6.864;2023-01-01T06:55:39;13.69;72.21
74081;SHT31;62438;52.228;6.864;2023-01-01T06:57:50;13.60;72.70
74081;SHT31;62438;52.228;6.864;2023-01-01T06:59:51;13.61;72.79
74081;SHT31;62438;52.228;6.864;2023-01-01T07:01:51;13.64;72.80
74081;SHT31;62438;52.228;6.864;2023-01-01T07:03:57;13.57;73.03
74081;SHT31;62438;52.228;6.864;2023-01-01T07:05:58;13.53;73.27
74081;SHT31;62438;52.228;6.864;2023-01-01T07:07:59;13.50;73.73
74081;SHT31;62438;52.228;6.864;2023-01-01T07:09:59;13.50;73.43
74081;SHT31;62438;52.228;6.864;2023-01-01T07:12:00;13.46;73.78
74081;SHT31;62438;52.228;6.864;2023-01-01T07:14:01;13.39;73.90
74081;SHT31;62438;52.228;6.864;2023-01-01T07:16:01;13.32;74.34
74081;SHT31;62438;52.228;6.864;2023-01-01T07:18:02;13.32;74.53
74081;SHT31;62438;52.228;6.864;2023-01-01T07:20:02;13.36;74.14
74081;SHT31;62438;52.228;6.864;2023-01-01T07:22:03;13.36;74.20
74081;SHT31;62438;52.228;6.864;2023-01-01T07:24:04;13.39;74.10
74081;SHT31;62438;52.228;6.864;2023-01-01T07:26:05;13.38;74.42
74081;SHT31;62438;52.228;6.864;2023-01-01T07:28:05;13.35;74.56
74081;SHT31;62438;52.228;6.864;2023-01-01T07:30:06;13.33;74.78
74081;SHT31;62438;52.228;6.864;2023-01-01T07:32:12;13.43;74.05
74081;SHT31;62438;52.228;6.864;2023-01-01T07:34:15;13.40;74.85
74081;SHT31;62438;52.228;6.864;2023-01-01T07:36:16;13.42;74.46
74081;SHT31;62438;52.228;6.864;2023-01-01T07:38:16;13.32;75.50
74081;SHT31;62438;52.228;6.864;2023-01-01T07:40:17;13.16;76.05
74081;SHT31;62438;52.228;6.864;2023-01-01T07:42:17;13.22;75.75
74081;SHT31;62438;52.228;6.864;2023-01-01T07:44:18;13.27;73.36
74081;SHT31;62438;52.228;6.864;2023-01-01T07:46:18;13.42;72.68
74081;SHT31;62438;52.228;6.864;2023-01-01T07:48:19;13.50;71.65
74081;SHT31;62438;52.228;6.864;2023-01-01T07:50:21;13.49;71.71
74081;SHT31;62438;52.228;6.864;2023-01-01T07:52:21;13.43;71.57
74081;SHT31;62438;52.228;6.864;2023-01-01T07:54:22;13.46;72.04
74081;SHT31;62438;52.228;6.864;2023-01-01T07:56:22;13.35;73.15
74081;SHT31;62438;52.228;6.864;2023-01-01T07:58:23;13.29;72.50
74081;SHT31;62438;52.228;6.864;2023-01-01T08:00:23;13.19;71.22
74081;SHT31;62438;52.228;6.864;2023-01-01T08:02:24;13.13;71.55
74081;SHT31;62438;52.228;6.864;2023-01-01T08:04:24;12.98;73.14
74081;SHT31;62438;52.228;6.864;2023-01-01T08:06:26;12.99;72.30
74081;SHT31;62438;52.228;6.864;2023-01-01T08:08:26;12.92;72.22
74081;SHT31;62438;52.228;6.864;2023-01-01T08:10:26;12.77;73.23
74081;SHT31;62438;52.228;6.864;2023-01-01T08:12:27;12.65;72.46
74081;SHT31;62438;52.228;6.864;2023-01-01T08:14:27;12.55;72.04
74081;SHT31;62438;52.228;6.864;2023-01-01T08:16:28;12.48;71.89
74081;SHT31;62438;52.228;6.864;2023-01-01T08:18:28;12.29;73.49
74081;SHT31;62438;52.228;6.864;2023-01-01T08:20:29;12.20;73.20
74081;SHT31;62438;52.228;6.864;2023-01-01T08:22:30;12.15;73.37
74081;SHT31;62438;52.228;6.864;2023-01-01T08:24:30;12.10;73.42
74081;SHT31;62438;52.228;6.864;2023-01-01T08:26:34;11.97;75.80
74081;SHT31;62438;52.228;6.864;2023-01-01T08:28:34;11.93;74.45
74081;SHT31;62438;52.228;6.864;2023-01-01T08:30:35;12.00;74.02
74081;SHT31;62438;52.228;6.864;2023-01-01T08:32:35;12.02;74.98
74081;SHT31;62438;52.228;6.864;2023-01-01T08:34:35;11.95;75.66
74081;SHT31;62438;52.228;6.864;2023-01-01T08:36:36;11.95;76.06
74081;SHT31;62438;52.228;6.864;2023-01-01T08:38:39;11.95;76.00
74081;SHT31;62438;52.228;6.864;2023-01-01T08:40:40;11.96;76.19
74081;SHT31;62438;52.228;6.864;2023-01-01T08:42:40;11.90;77.52
74081;SHT31;62438;52.228;6.864;2023-01-01T08:44:41;11.89;77.24
74081;SHT31;62438;52.228;6.864;2023-01-01T08:46:41;11.97;76.54
74081;SHT31;62438;52.228;6.864;2023-01-01T08:48:42;11.93;77.04
74081;SHT31;62438;52.228;6.864;2023-01-01T08:50:42;11.95;76.92
74081;SHT31;62438;52.228;6.864;2023-01-01T08:52:43;11.96;76.81
74081;SHT31;62438;52.228;6.864;2023-01-01T08:54:43;11.90;77.32
74081;SHT31;62438;52.228;6.864;2023-01-01T08:56:44;11.88;77.56
74081;SHT31;62438;52.228;6.864;2023-01-01T08:58:44;11.89;77.08
74081;SHT31;62438;52.228;6.864;2023-01-01T09:00:45;11.95;76.67
74081;SHT31;62438;52.228;6.864;2023-01-01T09:02:45;11.93;76.79
74081;SHT31;62438;52.228;6.864;2023-01-01T09:04:46;11.90;77.37
74081;SHT31;62438;52.228;6.864;2023-01-01T09:06:46;11.90;77.87
74081;SHT31;62438;52.228;6.864;2023-01-01T09:08:47;11.86;78.49
74081;SHT31;62438;52.228;6.864;2023-01-01T09:10:48;11.86;79.06
74081;SHT31;62438;52.228;6.864;2023-01-01T09:12:49;11.82;79.69
74081;SHT31;62438;52.228;6.864;2023-01-01T09:14:49;11.86;79.82
74081;SHT31;62438;52.228;6.864;2023-01-01T09:16:50;11.85;80.03
74081;SHT31;62438;52.228;6.864;2023-01-01T09:18:50;11.85;80.67
74081;SHT31;62438;52.228;6.864;2023-01-01T09:20:50;11.86;81.30
74081;SHT31;62438;52.228;6.864;2023-01-01T09:22:51;11.82;82.17
74081;SHT31;62438;52.228;6.864;2023-01-01T09:24:51;11.82;82.06
74081;SHT31;62438;52.228;6.864;2023-01-01T09:26:52;11.81;82.34
74081;SHT31;62438;52.228;6.864;2023-01-01T09:28:52;11.82;82.46
74081;SHT31;62438;52.228;6.864;2023-01-01T09:30:53;11.85;82.57
74081;SHT31;62438;52.228;6.864;2023-01-01T09:32:53;11.93;82.55
74081;SHT31;62438;52.228;6.864;2023-01-01T09:34:54;11.96;82.18
74081;SHT31;62438;52.228;6.864;2023-01-01T09:36:56;11.92;82.51
74081;SHT31;62438;52.228;6.864;2023-01-01T09:38:57;11.97;82.49
74081;SHT31;62438;52.228;6.864;2023-01-01T09:41:05;11.97;82.61
74081;SHT31;62438;52.228;6.864;2023-01-01T09:45:30;12.03;82.25
74081;SHT31;62438;52.228;6.864;2023-01-01T09:47:46;12.06;82.50
74081;SHT31;62438;52.228;6.864;2023-01-01T09:49:48;12.05;82.53
74081;SHT31;62438;52.228;6.864;2023-01-01T09:51:53;12.05;82.61
74081;SHT31;62438;52.228;6.864;2023-01-01T09:54:12;12.06;83.02
74081;SHT31;62438;52.228;6.864;2023-01-01T09:56:19;12.07;82.86
74081;SHT31;62438;52.228;6.864;2023-01-01T09:58:34;12.06;83.27
74081;SHT31;62438;52.228;6.864;2023-01-01T10:00:38;12.06;82.95
74081;SHT31;62438;52.228;6.864;2023-01-01T10:05:03;12.05;83.09
74081;SHT31;62438;52.228;6.864;2023-01-01T10:13:47;11.97;83.50
74081;SHT31;62438;52.228;6.864;2023-01-01T10:15:57;12.00;83.72
74081;SHT31;62438;52.228;6.864;2023-01-01T10:18:03;11.96;83.66
74081;SHT31;62438;52.228;6.864;2023-01-01T10:22:37;11.86;84.31
74081;SHT31;62438;52.228;6.864;2023-01-01T10:24:57;11.83;84.61
74081;SHT31;62438;52.228;6.864;2023-01-01T10:27:01;11.78;84.66
74081;SHT31;62438;52.228;6.864;2023-01-01T10:29:15;11.79;84.67
74081;SHT31;62438;52.228;6.864;2023-01-01T10:31:27;11.85;84.45
74081;SHT31;62438;52.228;6.864;2023-01-01T10:33:29;11.89;84.56
74081;SHT31;62438;52.228;6.864;2023-01-01T10:35:35;11.89;84.62
74081;SHT31;62438;52.228;6.864;2023-01-01T10:37:38;11.89;84.08
74081;SHT31;62438;52.228;6.864;2023-01-01T10:39:39;11.92;84.08
74081;SHT31;62438;52.228;6.864;2023-01-01T10:41:39;11.89;83.95
74081;SHT31;62438;52.228;6.864;2023-01-01T10:43:40;11.89;82.98
74081;SHT31;62438;52.228;6.864;2023-01-01T10:45:43;11.90;82.60
74081;SHT31;62438;52.228;6.864;2023-01-01T10:50:10;11.97;82.60
74081;SHT31;62438;52.228;6.864;2023-01-01T10:52:13;12.00;82.15
74081;SHT31;62438;52.228;6.864;2023-01-01T10:54:38;12.05;81.99
74081;SHT31;62438;52.228;6.864;2023-01-01T10:56:40;12.03;81.96
74081;SHT31;62438;52.228;6.864;2023-01-01T10:58:46;12.06;82.13
74081;SHT31;62438;52.228;6.864;2023-01-01T11:00:56;12.09;82.51
74081;SHT31;62438;52.228;6.864;2023-01-01T11:03:19;12.05;82.83
74081;SHT31;62438;52.228;6.864;2023-01-01T11:05:20;12.02;83.44
74081;SHT31;62438;52.228;6.864;2023-01-01T11:07:28;11.99;84.07
74081;SHT31;62438;52.228;6.864;2023-01-01T11:09:29;11.97;84.85
74081;SHT31;62438;52.228;6.864;2023-01-01T11:11:44;11.89;85.87
74081;SHT31;62438;52.228;6.864;2023-01-01T11:13:48;11.83;86.57
74081;SHT31;62438;52.228;6.864;2023-01-01T11:15:50;11.76;87.38
74081;SHT31;62438;52.228;6.864;2023-01-01T11:17:50;11.72;88.08
74081;SHT31;62438;52.228;6.864;2023-01-01T11:19:53;11.64;88.64
74081;SHT31;62438;52.228;6.864;2023-01-01T11:21:53;11.62;89.21
74081;SHT31;62438;52.228;6.864;2023-01-01T11:24:14;11.55;90.09
74081;SHT31;62438;52.228;6.864;2023-01-01T11:28:19;11.51;90.95
74081;SHT31;62438;52.228;6.864;2023-01-01T11:30:27;11.41;91.93
74081;SHT31;62438;52.228;6.864;2023-01-01T11:32:33;11.35;92.51
74081;SHT31;62438;52.228;6.864;2023-01-01T11:34:40;11.30;92.86
74081;SHT31;62438;52.228;6.864;2023-01-01T11:36:42;11.26;92.85
74081;SHT31;62438;52.228;6.864;2023-01-01T11:38:42;11.24;92.90
74081;SHT31;62438;52.228;6.864;2023-01-01T11:40:48;11.21;93.25
74081;SHT31;62438;52.228;6.864;2023-01-01T11:42:57;11.17;93.23
74081;SHT31;62438;52.228;6.864;2023-01-01T11:45:23;11.20;92.82
74081;SHT31;62438;52.228;6.864;2023-01-01T11:47:37;11.23;92.83
74081;SHT31;62438;52.228;6.864;2023-01-01T11:49:37;11.26;91.95
74081;SHT31;62438;52.228;6.864;2023-01-01T11:51:38;11.34;91.13
74081;SHT31;62438;52.228;6.864;2023-01-01T11:53:40;11.32;91.22
74081;SHT31;62438;52.228;6.864;2023-01-01T11:57:56;11.38;90.73
74081;SHT31;62438;52.228;6.864;2023-01-01T12:00:01;11.41;90.88
74081;SHT31;62438;52.228;6.864;2023-01-01T12:02:03;11.44;91.30
74081;SHT31;62438;52.228;6.864;2023-01-01T12:06:20;11.42;91.15
74081;SHT31;62438;52.228;6.864;2023-01-01T12:08:31;11.42;90.59
74081;SHT31;62438;52.228;6.864;2023-01-01T12:10:43;11.41;90.36
74081;SHT31;62438;52.228;6.864;2023-01-01T12:19:00;11.48;90.54
74081;SHT31;62438;52.228;6.864;2023-01-01T12:21:16;11.50;90.31
74081;SHT31;62438;52.228;6.864;2023-01-01T12:23:18;11.50;90.54
74081;SHT31;62438;52.228;6.864;2023-01-01T12:25:19;11.52;90.44
74081;SHT31;62438;52.228;6.864;2023-01-01T12:37:13;11.59;90.01
74081;SHT31;62438;52.228;6.864;2023-01-01T12:49:43;11.65;91.08
74081;SHT31;62438;52.228;6.864;2023-01-01T12:51:58;11.69;91.08
74081;SHT31;62438;52.228;6.864;2023-01-01T12:59:01;11.85;91.18
74081;SHT31;62438;52.228;6.864;2023-01-01T13:01:13;11.92;91.25
74081;SHT31;62438;52.228;6.864;2023-01-01T13:03:27;12.02;90.96
74081;SHT31;62438;52.228;6.864;2023-01-01T13:07:41;12.10;90.83
74081;SHT31;62438;52.228;6.864;2023-01-01T13:09:44;12.10;91.10
74081;SHT31;62438;52.228;6.864;2023-01-01T13:11:48;12.12;91.00
74081;SHT31;62438;52.228;6.864;2023-01-01T13:13:49;12.17;90.87
74081;SHT31;62438;52.228;6.864;2023-01-01T13:15:52;12.25;90.57
74081;SHT31;62438;52.228;6.864;2023-01-01T13:17:53;12.27;90.51
74081;SHT31;62438;52.228;6.864;2023-01-01T13:19:57;12.36;90.11
74081;SHT31;62438;52.228;6.864;2023-01-01T13:22:44;12.38;90.02
74081;SHT31;62438;52.228;6.864;2023-01-01T13:24:22;12.46;89.73
74081;SHT31;62438;52.228;6.864;2023-01-01T13:28:26;12.50;89.38
74081;SHT31;62438;52.228;6.864;2023-01-01T13:35:15;12.54;88.75
74081;SHT31;62438;52.228;6.864;2023-01-01T13:37:30;12.57;87.84
74081;SHT31;62438;52.228;6.864;2023-01-01T13:41:55;12.61;87.11
74081;SHT31;62438;52.228;6.864;2023-01-01T13:46:02;12.63;86.99
74081;SHT31;62438;52.228;6.864;2023-01-01T13:50:27;12.60;86.86
74081;SHT31;62438;52.228;6.864;2023-01-01T13:52:37;12.57;86.75
74081;SHT31;62438;52.228;6.864;2023-01-01T13:59:57;12.55;86.11
74081;SHT31;62438;52.228;6.864;2023-01-01T14:04:07;12.53;86.23
74081;SHT31;62438;52.228;6.864;2023-01-01T14:06:18;12.47;86.47
74081;SHT31;62438;52.228;6.864;2023-01-01T14:08:33;12.48;86.20
74081;SHT31;62438;52.228;6.864;2023-01-01T14:10:35;12.53;86.21
74081;SHT31;62438;52.228;6.864;2023-01-01T14:12:36;12.51;86.16
74081;SHT31;62438;52.228;6.864;2023-01-01T14:14:37;12.54;85.99
74081;SHT31;62438;52.228;6.864;2023-01-01T14:16:38;12.51;86.38
74081;SHT31;62438;52.228;6.864;2023-01-01T14:18:48;12.53;86.17
74081;SHT31;62438;52.228;6.864;2023-01-01T14:20:50;12.55;85.76
74081;SHT31;62438;52.228;6.864;2023-01-01T14:22:51;12.63;85.33
74081;SHT31;62438;52.228;6.864;2023-01-01T14:24:52;12.55;85.78
74081;SHT31;62438;52.228;6.864;2023-01-01T14:26:53;12.63;85.11
74081;SHT31;62438;52.228;6.864;2023-01-01T14:28:55;12.61;85.35
74081;SHT31;62438;52.228;6.864;2023-01-01T14:30:58;12.61;85.02
74081;SHT31;62438;52.228;6.864;2023-01-01T14:33:01;12.50;85.90
74081;SHT31;62438;52.228;6.864;2023-01-01T14:35:01;12.55;85.30
74081;SHT31;62438;52.228;6.864;2023-01-01T14:37:04;12.57;85.09
74081;SHT31;62438;52.228;6.864;2023-01-01T14:39:25;12.57;85.17
74081;SHT31;62438;52.228;6.864;2023-01-01T14:41:35;12.48;85.36
74081;SHT31;62438;52.228;6.864;2023-01-01T14:43:41;12.51;85.31
74081;SHT31;62438;52.228;6.864;2023-01-01T14:45:42;12.47;85.38
74081;SHT31;62438;52.228;6.864;2023-01-01T14:47:48;12.40;85.78
74081;SHT31;62438;52.228;6.864;2023-01-01T14:49:50;12.37;85.76